Terminal Aerodrome Forecast
Issued by NWS

Home | Current Version | Previous Version | Text Only | Print | Product List | Glossary On
Versions: 1 2 3 4 5 6 7 8 9 10 11 12 13 14 15 16 17 18 19 20 21 22 23 24 25 26 27 28 29 30 31 32
000
FTUS43 KLOT 250500 CCA
TAFDPA
TAF COR
KDPA 250551Z 2506/2606 23004KT 6SM BR BKN025 OVC035
     FM250700 26004KT 2SM BR SCT007 BKN015
      TEMPO 2509/2512 1/2SM FG BKN007
     FM251500 30007KT P6SM FEW250
     FM251900 30012G19KT P6SM SCT100
     FM260000 29008KT P6SM FEW080=

USA.gov is the U.S. government's official web portal to all federal, state and local government web resources and services.